Medicine Park, OK (73557)

7:12 PM CDT on September 27, 2016 (GMT -0500)
Wichita Estates | | Change Station

Elev 1247 ft 34.73 °N, 98.43 °W | Updated 7 seconds ago

Clear
Clear
74.1 °F
Feels Like 77 °F
N
0.0
Wind Variable Wind from South
Gusts 0.0 mph

Today
High -- | Low -- °F
--% Chance of Precip.
Yesterday
High -- | Low -- °F
Precip. -- in
Pressure 30.00 in
Visibility 10.0 miles
Clouds Clear
Heat Index 77 °F
Dew Point 58 °F
Humidity 57%
Rainfall 0.00 in
Snow Depth Not available.
7:25 AM 7:22 PM
Waning Crescent, 9% visible
METAR KFSI 272358Z 21005KT 10SM CLR 25/09 A3001 RMK AO2A SLP158 T02450085 10274 20245 57010
Pressure 30.00 in
Visibility 10.0 miles
Clouds Clear
Heat Index 77 °F
Dew Point 58 °F
Humidity 57%
Rainfall 0.00 in
Snow Depth Not available.
7:25 AM 7:22 PM
Waning Crescent, 9% visible
METAR KFSI 272358Z 21005KT 10SM CLR 25/09 A3001 RMK AO2A SLP158 T02450085 10274 20245 57010

10-Day Weather Forecast

Almanac

Astronomy

Sep. 27, 2016 Rise Set
Actual Time
Civil Twilight
Nautical Twilight
Astronomical Twilight
Moon
Length of Visible Light
Length of Day
Tomorrow will be .
, % of the Moon is Illuminated

Today's Extremes

State Highs State Lows

Community

WunderPhotos

Upload Photos

1,942,179 photos uploaded!

WunderBlog® & News

Nearby

Air Quality

  Air Quality AQ Index Pollutant
Not available.

Snow Depth

Station Depth Elevation

Earthquake Activity

City Distance Mag. Time & Date
Minimum magnitude displayed is 2.5.

Coastal Water Temperatures

Place Temperature

Stations

Nearby Weather Stations

Station Location Temp. Windchill Dew Point Humidity Wind Precip. Elev Updated Type
                   

Watches & Warnings

There are currently no watches in effect.